Time;durP1;ratioP1;P1;durP2;ratioP2;P2;SDS_P1;SDS_P2;PMS_P1;PMS_P2;Temp;Humidity;BMP_temperature;BMP_pressure;BME280_temperature;BME280_humidity;BME280_pressure;Samples;Min_cycle;Max_cycle;Signal;HPM_P1;HPM_P2
2023/01/20 00:02:02;;;;;;;5.20;4.67;;;;;;;;;;5130113;27;20443;-67
2023/01/20 00:04:28;;;;;;;6.40;4.73;;;;;;;;;;5127663;27;20438;-68
2023/01/20 00:06:54;;;;;;;5.43;5.03;;;;;;;;;;5129263;27;20442;-69
2023/01/20 00:09:21;;;;;;;10.17;6.27;;;;;;;;;;5128888;27;20470;-68
2023/01/20 00:11:47;;;;;;;8.70;5.30;;;;;;;;;;5129759;27;20439;-67
2023/01/20 00:14:13;;;;;;;9.37;5.50;;;;;;;;;;5128105;27;20426;-67
2023/01/20 00:16:39;;;;;;;8.00;4.90;;;;;;;;;;5130333;27;20506;-66
2023/01/20 00:19:05;;;;;;;5.40;5.00;;;;;;;;;;5129150;28;20517;-68
2023/01/20 00:21:33;;;;;;;5.27;4.80;;;;;;;;;;5130006;28;20437;-68
2023/01/20 00:23:59;;;;;;;13.23;4.97;;;;;;;;;;5128284;28;20442;-67
2023/01/20 00:26:25;;;;;;;5.53;4.37;;;;;;;;;;5128647;28;20868;-67
2023/01/20 00:28:56;;;;;;;4.70;4.40;;;;;;;;;;5128306;28;20518;-68
2023/01/20 00:31:23;;;;;;;5.43;4.67;;;;;;;;;;5130170;28;20454;-68
2023/01/20 00:33:50;;;;;;;15.90;8.00;;;;;;;;;;5126592;28;20442;-67
2023/01/20 00:36:18;;;;;;;6.97;5.40;;;;;;;;;;5128199;28;20525;-66
2023/01/20 00:38:44;;;;;;;10.03;6.50;;;;;;;;;;5129077;28;20977;-67
2023/01/20 00:41:10;;;;;;;10.97;6.67;;;;;;;;;;5129154;28;20533;-67
2023/01/20 00:43:36;;;;;;;5.03;4.73;;;;;;;;;;5128183;28;20426;-67
2023/01/20 00:46:03;;;;;;;5.50;5.13;;;;;;;;;;5129420;28;20803;-67
2023/01/20 00:48:29;;;;;;;7.30;5.87;;;;;;;;;;5129351;28;20455;-67
2023/01/20 00:50:55;;;;;;;9.20;5.37;;;;;;;;;;5127989;28;20959;-67
2023/01/20 00:53:21;;;;;;;6.77;4.50;;;;;;;;;;5127624;28;20431;-68
2023/01/20 00:55:47;;;;;;;4.93;4.50;;;;;;;;;;5093651;28;20496;-67
2023/01/20 00:58:13;;;;;;;4.47;4.20;;;;;;;;;;5129400;28;20426;-69
2023/01/20 01:00:39;;;;;;;7.07;4.60;;;;;;;;;;5129337;28;20482;-67
2023/01/20 01:03:05;;;;;;;4.73;4.43;;;;;;;;;;5128291;28;20454;-66
2023/01/20 01:05:31;;;;;;;5.33;3.70;;;;;;;;;;5128361;28;20458;-68
2023/01/20 01:07:57;;;;;;;4.67;4.10;;;;;;;;;;5129985;27;20815;-68
2023/01/20 01:10:23;;;;;;;4.73;4.33;;;;;;;;;;5133302;27;20481;-67
2023/01/20 01:12:49;;;;;;;5.23;5.00;;;;;;;;;;5132673;27;20761;-67
2023/01/20 01:15:15;;;;;;;5.33;4.93;;;;;;;;;;5133734;27;20466;-68
2023/01/20 01:17:43;;;;;;;5.37;4.70;;;;;;;;;;5132533;27;20870;-67
2023/01/20 01:20:09;;;;;;;5.60;4.63;;;;;;;;;;5131510;27;20426;-67
2023/01/20 01:22:35;;;;;;;5.00;4.10;;;;;;;;;;5133423;27;20418;-67
2023/01/20 01:25:01;;;;;;;5.40;5.00;;;;;;;;;;5133458;27;20476;-66
2023/01/20 01:27:28;;;;;;;5.90;4.77;;;;;;;;;;5133650;27;20771;-68
2023/01/20 01:29:54;;;;;;;5.17;4.67;;;;;;;;;;5132799;27;20485;-67
2023/01/20 01:32:20;;;;;;;5.17;4.50;;;;;;;;;;5132900;27;20917;-69
2023/01/20 01:34:46;;;;;;;7.23;6.23;;;;;;;;;;5132780;27;20438;-67
2023/01/20 01:37:12;;;;;;;8.23;6.70;;;;;;;;;;5133591;27;20421;-67
2023/01/20 01:39:38;;;;;;;14.13;7.80;;;;;;;;;;5132377;27;20956;-67
2023/01/20 01:42:10;;;;;;;8.50;7.20;;;;;;;;;;5130650;27;20446;-67
2023/01/20 01:44:38;;;;;;;6.37;5.90;;;;;;;;;;5127320;27;20444;-67
2023/01/20 01:47:04;;;;;;;5.53;5.13;;;;;;;;;;5133144;27;20466;-67
2023/01/20 01:49:31;;;;;;;5.50;5.00;;;;;;;;;;5131166;27;20569;-67
2023/01/20 01:52:05;;;;;;;11.93;5.03;;;;;;;;;;5130710;27;20580;-67
2023/01/20 01:54:35;;;;;;;6.33;5.73;;;;;;;;;;5132104;27;20418;-68
2023/01/20 01:57:01;;;;;;;4.50;4.20;;;;;;;;;;5113745;27;20857;-67
2023/01/20 01:59:27;;;;;;;4.73;4.33;;;;;;;;;;5131929;27;20913;-67
2023/01/20 02:01:54;;;;;;;5.27;4.97;;;;;;;;;;5132617;27;20431;-67
2023/01/20 02:04:22;;;;;;;16.57;5.60;;;;;;;;;;5132562;27;20433;-67
2023/01/20 02:06:51;;;;;;;5.40;5.00;;;;;;;;;;5131990;27;20463;-67
2023/01/20 02:09:17;;;;;;;5.03;4.70;;;;;;;;;;5131316;27;20466;-67
2023/01/20 02:11:47;;;;;;;6.10;4.90;;;;;;;;;;5130737;27;20503;-67
2023/01/20 02:14:14;;;;;;;4.57;4.17;;;;;;;;;;5131382;27;20434;-68
2023/01/20 02:16:40;;;;;;;4.80;4.40;;;;;;;;;;5131423;27;20426;-68
2023/01/20 02:19:13;;;;;;;5.23;4.73;;;;;;;;;;5131226;27;20439;-67
2023/01/20 02:21:49;;;;;;;4.70;4.30;;;;;;;;;;5130884;27;20983;-67
2023/01/20 02:24:16;;;;;;;4.63;4.40;;;;;;;;;;5128399;27;20466;-67
2023/01/20 02:27:01;;;;;;;6.07;4.90;;;;;;;;;;5130474;27;20530;-67
2023/01/20 02:29:36;;;;;;;4.77;4.47;;;;;;;;;;5095983;27;20467;-67
2023/01/20 04:47:31;;;;;;;56.87;19.07;;;;;;;;;;5107575;27;20510;-67
2023/01/20 04:49:57;;;;;;;43.67;16.30;;;;;;;;;;5133476;27;20462;-66
2023/01/20 04:52:23;;;;;;;18.10;7.30;;;;;;;;;;5133831;27;20468;-67
2023/01/20 04:54:49;;;;;;;21.03;8.63;;;;;;;;;;5132537;27;20434;-68
2023/01/20 04:57:15;;;;;;;10.97;6.03;;;;;;;;;;5133858;27;20441;-68
2023/01/20 04:59:44;;;;;;;12.87;6.67;;;;;;;;;;5098023;27;20438;-68
2023/01/20 05:02:10;;;;;;;19.27;8.17;;;;;;;;;;5115023;27;20445;-68
2023/01/20 05:04:36;;;;;;;5.93;5.30;;;;;;;;;;5131722;27;20442;-68
2023/01/20 05:07:02;;;;;;;33.93;12.87;;;;;;;;;;5134236;27;20471;-67
2023/01/20 05:09:28;;;;;;;4.57;4.23;;;;;;;;;;5132847;27;20560;-68
2023/01/20 05:11:54;;;;;;;4.97;4.53;;;;;;;;;;5134449;27;20510;-68
2023/01/20 05:14:20;;;;;;;5.37;4.87;;;;;;;;;;5133370;27;20906;-68
2023/01/20 05:16:46;;;;;;;12.83;5.43;;;;;;;;;;5134083;27;20438;-67
2023/01/20 05:19:12;;;;;;;5.07;3.63;;;;;;;;;;5132152;27;20459;-67
2023/01/20 05:21:39;;;;;;;19.03;8.23;;;;;;;;;;5133254;27;20510;-67
2023/01/20 05:24:05;;;;;;;78.60;21.63;;;;;;;;;;5133701;27;20417;-68
2023/01/20 05:26:32;;;;;;;18.90;6.60;;;;;;;;;;5133344;27;20442;-68
2023/01/20 05:28:57;;;;;;;5.50;4.13;;;;;;;;;;5132368;27;20499;-68
2023/01/20 05:31:23;;;;;;;3.40;3.17;;;;;;;;;;5132402;27;20528;-68
2023/01/20 05:33:49;;;;;;;3.73;3.43;;;;;;;;;;5114682;27;20418;-68
2023/01/20 05:36:15;;;;;;;5.03;4.60;;;;;;;;;;5115144;27;20835;-69
2023/01/20 05:38:41;;;;;;;11.63;5.70;;;;;;;;;;5133041;27;20450;-67
2023/01/20 05:41:08;;;;;;;13.23;5.70;;;;;;;;;;5114937;27;20774;-67
2023/01/20 05:43:34;;;;;;;6.33;5.07;;;;;;;;;;5127811;27;20440;-67
2023/01/20 05:46:00;;;;;;;6.80;6.20;;;;;;;;;;5132456;27;20443;-67
2023/01/20 05:48:26;;;;;;;8.37;7.00;;;;;;;;;;5132572;27;20969;-67
2023/01/20 05:50:52;;;;;;;6.63;5.40;;;;;;;;;;5133254;27;20474;-67
2023/01/20 05:53:19;;;;;;;6.93;6.27;;;;;;;;;;5130807;27;20435;-67
2023/01/20 05:55:45;;;;;;;6.77;5.70;;;;;;;;;;5131965;27;20458;-67
2023/01/20 05:58:11;;;;;;;5.80;5.23;;;;;;;;;;5132527;27;20465;-68
2023/01/20 06:00:37;;;;;;;6.30;5.80;;;;;;;;;;5132937;27;20526;-67
2023/01/20 06:03:03;;;;;;;8.17;7.00;;;;;;;;;;5131844;27;20482;-67
2023/01/20 06:05:29;;;;;;;12.53;7.50;;;;;;;;;;5131461;27;20930;-68
2023/01/20 06:07:55;;;;;;;12.30;8.00;;;;;;;;;;5131548;27;20973;-67
2023/01/20 06:10:26;;;;;;;12.03;8.20;;;;;;;;;;5132322;27;20462;-67
2023/01/20 06:12:53;;;;;;;11.20;8.90;;;;;;;;;;5132854;27;20446;-69
2023/01/20 06:15:19;;;;;;;9.47;8.30;;;;;;;;;;5132668;27;20491;-67
2023/01/20 06:17:45;;;;;;;10.40;8.80;;;;;;;;;;5132814;27;20522;-67
2023/01/20 06:20:11;;;;;;;11.83;10.10;;;;;;;;;;5132457;27;20505;-67
2023/01/20 06:22:37;;;;;;;13.20;10.40;;;;;;;;;;5132287;27;20446;-68
2023/01/20 06:25:04;;;;;;;12.30;10.47;;;;;;;;;;5132169;27;20545;-68
2023/01/20 06:27:30;;;;;;;13.00;10.17;;;;;;;;;;5132546;27;20435;-68
2023/01/20 06:29:55;;;;;;;15.67;9.40;;;;;;;;;;5132167;27;20470;-67
2023/01/20 06:32:21;;;;;;;10.77;9.17;;;;;;;;;;5131961;27;20475;-67
2023/01/20 06:34:47;;;;;;;9.23;8.30;;;;;;;;;;5110994;27;20459;-67
2023/01/20 06:37:13;;;;;;;12.03;8.77;;;;;;;;;;5131857;27;20418;-68
2023/01/20 06:39:39;;;;;;;11.20;8.83;;;;;;;;;;5131498;27;20887;-67
2023/01/20 06:42:06;;;;;;;17.30;11.80;;;;;;;;;;5132158;27;20435;-67
2023/01/20 06:44:35;;;;;;;9.33;8.30;;;;;;;;;;5112102;27;20492;-68
2023/01/20 06:47:01;;;;;;;14.90;8.10;;;;;;;;;;5131396;27;20476;-67
2023/01/20 06:49:27;;;;;;;10.87;9.70;;;;;;;;;;5130428;27;20913;-67
2023/01/20 06:51:53;;;;;;;15.00;9.23;;;;;;;;;;5132206;27;20441;-67
2023/01/20 06:54:19;;;;;;;15.23;9.80;;;;;;;;;;5128819;27;20431;-70
2023/01/20 06:56:45;;;;;;;13.47;9.63;;;;;;;;;;5131883;27;20956;-69
2023/01/20 06:59:11;;;;;;;9.97;8.10;;;;;;;;;;5123765;27;20439;-69
2023/01/20 07:01:37;;;;;;;11.23;9.63;;;;;;;;;;5127476;27;20435;-68
2023/01/20 07:04:03;;;;;;;9.90;8.90;;;;;;;;;;5110783;27;20433;-67
2023/01/20 07:06:31;;;;;;;14.60;9.43;;;;;;;;;;5130844;27;20471;-67
2023/01/20 07:08:57;;;;;;;14.37;10.27;;;;;;;;;;5130260;27;20930;-68
2023/01/20 07:11:23;;;;;;;9.87;8.63;;;;;;;;;;5130716;27;20474;-69
2023/01/20 07:13:49;;;;;;;21.97;11.00;;;;;;;;;;5130333;27;20792;-68
2023/01/20 07:16:15;;;;;;;9.93;8.80;;;;;;;;;;5130040;27;20929;-67
2023/01/20 07:18:41;;;;;;;10.90;7.90;;;;;;;;;;5130445;27;20502;-69
2023/01/20 07:21:09;;;;;;;7.80;7.00;;;;;;;;;;5130462;27;20431;-68
2023/01/20 07:23:35;;;;;;;23.07;8.50;;;;;;;;;;5131119;27;20422;-68
2023/01/20 07:26:03;;;;;;;18.30;8.60;;;;;;;;;;5129249;27;20498;-66
2023/01/20 07:28:38;;;;;;;9.80;8.37;;;;;;;;;;5110231;27;20426;-67
2023/01/20 07:31:04;;;;;;;12.80;8.00;;;;;;;;;;5111183;27;20533;-67
2023/01/20 07:33:31;;;;;;;15.10;7.97;;;;;;;;;;5129515;27;20438;-68
2023/01/20 07:35:57;;;;;;;7.83;7.07;;;;;;;;;;5128966;27;20435;-69
2023/01/20 07:38:23;;;;;;;9.17;8.37;;;;;;;;;;5112431;27;20893;-69
2023/01/20 07:40:49;;;;;;;8.97;8.00;;;;;;;;;;5128869;27;20808;-69
2023/01/20 07:43:15;;;;;;;12.90;8.37;;;;;;;;;;5129668;27;20490;-68
2023/01/20 07:45:44;;;;;;;18.73;7.73;;;;;;;;;;5130209;27;20906;-67
2023/01/20 07:48:10;;;;;;;13.47;8.17;;;;;;;;;;5128979;27;20470;-67
2023/01/20 07:50:36;;;;;;;12.93;7.67;;;;;;;;;;5111091;27;20470;-68
2023/01/20 07:53:02;;;;;;;17.47;11.20;;;;;;;;;;5130737;27;20950;-67
2023/01/20 07:55:29;;;;;;;14.87;10.20;;;;;;;;;;5128561;27;20475;-67
2023/01/20 07:57:55;;;;;;;11.20;8.17;;;;;;;;;;5130801;27;20423;-67
2023/01/20 08:00:21;;;;;;;9.80;8.43;;;;;;;;;;5129147;27;20431;-68
2023/01/20 08:02:47;;;;;;;8.13;7.50;;;;;;;;;;5111754;27;20430;-66
2023/01/20 08:05:13;;;;;;;8.67;7.80;;;;;;;;;;5128574;27;20430;-68
2023/01/20 08:07:39;;;;;;;8.80;8.00;;;;;;;;;;5130419;27;20437;-68
2023/01/20 08:10:05;;;;;;;8.10;7.40;;;;;;;;;;5128254;27;20482;-66
2023/01/20 08:12:31;;;;;;;11.17;8.93;;;;;;;;;;5130698;27;20437;-68
2023/01/20 08:15:00;;;;;;;18.73;10.60;;;;;;;;;;5130393;27;20419;-66
2023/01/20 08:17:26;;;;;;;10.07;8.10;;;;;;;;;;5129888;27;20454;-67
2023/01/20 08:19:52;;;;;;;15.63;9.00;;;;;;;;;;5129191;27;20455;-66
2023/01/20 08:22:18;;;;;;;10.90;8.10;;;;;;;;;;5128988;27;20468;-69
2023/01/20 08:24:44;;;;;;;9.17;8.20;;;;;;;;;;5128675;28;20427;-67
2023/01/20 08:27:10;;;;;;;11.13;8.87;;;;;;;;;;5129896;27;20441;-67
2023/01/20 08:29:36;;;;;;;14.30;9.87;;;;;;;;;;5110651;28;20463;-66
2023/01/20 08:32:02;;;;;;;16.17;11.13;;;;;;;;;;5129969;28;21020;-67
2023/01/20 08:34:28;;;;;;;12.43;9.70;;;;;;;;;;5126773;28;20426;-70
2023/01/20 08:36:56;;;;;;;12.10;10.20;;;;;;;;;;5127474;28;20854;-70
2023/01/20 08:39:22;;;;;;;9.03;8.27;;;;;;;;;;5126942;28;20431;-69
2023/01/20 08:41:49;;;;;;;12.90;9.10;;;;;;;;;;5130486;28;20513;-67
2023/01/20 08:44:16;;;;;;;14.03;9.70;;;;;;;;;;5130594;28;20411;-70
2023/01/20 08:46:42;;;;;;;14.43;9.40;;;;;;;;;;5129909;28;20431;-67
2023/01/20 08:49:09;;;;;;;14.37;9.33;;;;;;;;;;5128989;28;20462;-67
2023/01/20 08:51:35;;;;;;;11.47;8.57;;;;;;;;;;5130230;28;20968;-69
2023/01/20 08:54:01;;;;;;;9.70;8.50;;;;;;;;;;5128100;28;21006;-69
2023/01/20 08:56:28;;;;;;;14.10;9.00;;;;;;;;;;5111978;28;20431;-69
2023/01/20 08:58:55;;;;;;;8.80;8.00;;;;;;;;;;5128429;28;20433;-68
2023/01/20 09:01:22;;;;;;;29.67;9.33;;;;;;;;;;5110346;28;20467;-69
2023/01/20 09:03:48;;;;;;;13.80;9.20;;;;;;;;;;5130108;27;20414;-69
2023/01/20 09:06:14;;;;;;;19.40;8.67;;;;;;;;;;5111087;28;20808;-69
2023/01/20 09:08:41;;;;;;;15.73;9.50;;;;;;;;;;5109683;28;20497;-67
2023/01/20 09:11:08;;;;;;;10.13;9.03;;;;;;;;;;5126069;28;21018;-68
2023/01/20 09:13:34;;;;;;;15.10;10.20;;;;;;;;;;5130252;28;21860;-67
2023/01/20 09:16:00;;;;;;;12.77;9.20;;;;;;;;;;5126872;28;20434;-68
2023/01/20 09:18:26;;;;;;;14.93;8.33;;;;;;;;;;5107757;28;20977;-68
2023/01/20 09:20:52;;;;;;;12.40;10.10;;;;;;;;;;5124179;28;20522;-67
2023/01/20 09:23:18;;;;;;;14.77;8.90;;;;;;;;;;5127687;28;20513;-69
2023/01/20 09:25:44;;;;;;;29.10;9.13;;;;;;;;;;5128194;28;20430;-68
2023/01/20 09:28:11;;;;;;;14.10;8.27;;;;;;;;;;5128226;27;20798;-69
2023/01/20 09:30:37;;;;;;;7.30;6.60;;;;;;;;;;5132121;27;20501;-71
2023/01/20 09:33:03;;;;;;;8.83;7.93;;;;;;;;;;5132591;27;20930;-72
2023/01/20 09:35:29;;;;;;;19.53;8.13;;;;;;;;;;5131878;27;20829;-73
2023/01/20 09:43:55;;;;;;;8.70;7.80;;;;;;;;;;5133627;27;20537;-72
2023/01/20 09:46:32;;;;;;;22.53;7.40;;;;;;;;;;5133104;27;20445;-73
2023/01/20 09:55:12;;;;;;;7.13;6.10;;;;;;;;;;5133137;27;20442;-69
2023/01/20 09:57:41;;;;;;;10.03;6.97;;;;;;;;;;5133017;27;20431;-68
2023/01/20 10:00:19;;;;;;;16.77;6.63;;;;;;;;;;5131995;27;20514;-68
2023/01/20 10:02:48;;;;;;;13.23;7.10;;;;;;;;;;5132608;27;20407;-70
2023/01/20 10:05:18;;;;;;;7.53;6.67;;;;;;;;;;5113169;27;20455;-68
2023/01/20 10:08:03;;;;;;;10.07;6.80;;;;;;;;;;5131287;27;20453;-68
2023/01/20 10:10:32;;;;;;;8.20;7.50;;;;;;;;;;5129743;27;20482;-69
2023/01/20 10:13:18;;;;;;;10.53;7.27;;;;;;;;;;5132673;27;20427;-69
2023/01/20 10:15:50;;;;;;;12.53;9.13;;;;;;;;;;5131851;27;20772;-71
2023/01/20 10:18:35;;;;;;;25.03;9.60;;;;;;;;;;5112084;27;20521;-69
2023/01/20 10:21:06;;;;;;;12.73;8.73;;;;;;;;;;5132791;27;20826;-71
2023/01/20 10:23:36;;;;;;;9.73;7.27;;;;;;;;;;5131796;27;20441;-69
2023/01/20 10:26:07;;;;;;;8.83;7.73;;;;;;;;;;5132502;27;20480;-72
2023/01/20 10:28:38;;;;;;;14.93;8.50;;;;;;;;;;5130705;27;20478;-72
2023/01/20 10:31:04;;;;;;;10.33;7.90;;;;;;;;;;5131962;27;20493;-70
2023/01/20 10:33:37;;;;;;;10.83;8.87;;;;;;;;;;5131263;27;20918;-68
2023/01/20 10:36:03;;;;;;;9.97;9.07;;;;;;;;;;5132369;27;21198;-69
2023/01/20 10:38:38;;;;;;;16.80;8.13;;;;;;;;;;5130724;27;20920;-69
2023/01/20 10:41:13;;;;;;;10.33;8.33;;;;;;;;;;5131579;27;20422;-71
2023/01/20 10:43:39;;;;;;;10.30;8.50;;;;;;;;;;5132201;27;20487;-68
2023/01/20 10:46:24;;;;;;;12.00;9.30;;;;;;;;;;5132531;27;20430;-69
2023/01/20 10:49:02;;;;;;;9.67;8.40;;;;;;;;;;5128527;27;21046;-69
2023/01/20 10:51:31;;;;;;;11.60;8.80;;;;;;;;;;5132369;27;20477;-68
2023/01/20 10:54:16;;;;;;;11.97;8.97;;;;;;;;;;5130871;27;20929;-69
2023/01/20 10:56:44;;;;;;;20.13;8.60;;;;;;;;;;5132331;27;20453;-69
2023/01/20 10:59:16;;;;;;;10.03;8.93;;;;;;;;;;5130342;27;20430;-69
2023/01/20 11:01:44;;;;;;;36.43;10.90;;;;;;;;;;5130283;27;20788;-69
2023/01/20 11:04:16;;;;;;;12.90;9.73;;;;;;;;;;5132293;27;20783;-71
2023/01/20 11:06:42;;;;;;;13.73;10.20;;;;;;;;;;5113167;27;20415;-73
2023/01/20 11:09:15;;;;;;;14.03;11.93;;;;;;;;;;5110743;27;20517;-68
2023/01/20 11:11:41;;;;;;;13.87;10.13;;;;;;;;;;5128985;27;20479;-69
2023/01/20 11:14:07;;;;;;;22.00;8.80;;;;;;;;;;5130580;27;20536;-69
2023/01/20 11:16:33;;;;;;;23.00;11.83;;;;;;;;;;5131908;27;20469;-67
2023/01/20 11:19:01;;;;;;;22.60;13.83;;;;;;;;;;5131862;27;20798;-68
2023/01/20 11:21:35;;;;;;;18.37;11.00;;;;;;;;;;5112060;27;20430;-74
2023/01/20 11:24:02;;;;;;;13.43;11.03;;;;;;;;;;5124559;27;20422;-69
2023/01/20 11:26:37;;;;;;;53.03;26.73;;;;;;;;;;5130929;27;20467;-70
2023/01/20 11:29:09;;;;;;;27.50;12.57;;;;;;;;;;5128735;27;20434;-68
2023/01/20 11:31:43;;;;;;;26.40;13.10;;;;;;;;;;5128440;27;20503;-70
2023/01/20 11:34:31;;;;;;;22.27;14.10;;;;;;;;;;5129639;27;20461;-69
2023/01/20 11:37:17;;;;;;;23.63;11.97;;;;;;;;;;5111790;27;20929;-69
2023/01/20 11:39:46;;;;;;;20.00;13.27;;;;;;;;;;5104407;27;20679;-68
2023/01/20 11:42:19;;;;;;;25.10;17.00;;;;;;;;;;5111578;27;20430;-67
2023/01/20 11:44:54;;;;;;;21.13;14.93;;;;;;;;;;5128135;27;20934;-68
2023/01/20 11:47:30;;;;;;;16.47;11.87;;;;;;;;;;5129598;27;20870;-72
2023/01/20 11:50:08;;;;;;;16.07;10.67;;;;;;;;;;5128509;27;20982;-69
2023/01/20 11:52:34;;;;;;;17.70;11.50;;;;;;;;;;5129812;27;20442;-69
2023/01/20 11:55:07;;;;;;;17.53;10.90;;;;;;;;;;5129792;27;20427;-69
2023/01/20 11:57:36;;;;;;;13.30;10.23;;;;;;;;;;5128504;27;20438;-68
2023/01/20 12:00:03;;;;;;;13.90;9.77;;;;;;;;;;5126637;27;20432;-69
2023/01/20 12:02:29;;;;;;;9.33;8.33;;;;;;;;;;5129208;27;20510;-72
2023/01/20 12:04:58;;;;;;;16.40;9.97;;;;;;;;;;5129518;27;20419;-69
2023/01/20 12:07:33;;;;;;;12.57;8.27;;;;;;;;;;5129034;27;20812;-69
2023/01/20 12:10:11;;;;;;;26.50;10.20;;;;;;;;;;5110370;27;20470;-68
2023/01/20 12:12:41;;;;;;;10.40;8.53;;;;;;;;;;5111993;28;20997;-70
2023/01/20 12:15:13;;;;;;;13.83;11.20;;;;;;;;;;5128814;27;20438;-69
2023/01/20 12:17:51;;;;;;;12.27;8.87;;;;;;;;;;5129380;27;20914;-67
2023/01/20 12:20:22;;;;;;;13.93;9.10;;;;;;;;;;5127929;27;20444;-70
2023/01/20 12:22:57;;;;;;;23.63;14.73;;;;;;;;;;5127228;27;20442;-67
2023/01/20 12:25:31;;;;;;;20.63;9.47;;;;;;;;;;5129505;27;20422;-70
2023/01/20 12:28:03;;;;;;;14.33;9.00;;;;;;;;;;5128553;28;20555;-68
2023/01/20 12:30:51;;;;;;;10.73;8.63;;;;;;;;;;5129453;28;20978;-68
2023/01/20 12:33:19;;;;;;;47.53;17.47;;;;;;;;;;5129000;28;20483;-67
2023/01/20 12:35:53;;;;;;;8.93;7.83;;;;;;;;;;5129675;28;20427;-67
2023/01/20 12:38:20;;;;;;;9.40;8.40;;;;;;;;;;5127102;28;20916;-67
2023/01/20 12:40:48;;;;;;;13.17;8.03;;;;;;;;;;5128500;28;20910;-67
2023/01/20 12:43:14;;;;;;;8.43;7.63;;;;;;;;;;5108235;28;20867;-67
2023/01/20 12:45:48;;;;;;;10.83;7.83;;;;;;;;;;5128844;28;20576;-68
2023/01/20 12:48:23;;;;;;;7.70;7.00;;;;;;;;;;5106143;28;20556;-67
2023/01/20 12:51:08;;;;;;;14.40;7.93;;;;;;;;;;5109039;28;20501;-69
2023/01/20 12:53:37;;;;;;;26.43;11.27;;;;;;;;;;5108968;28;20434;-69
2023/01/20 12:56:23;;;;;;;47.37;21.27;;;;;;;;;;5109401;28;20432;-67
2023/01/20 12:58:50;;;;;;;85.57;36.87;;;;;;;;;;5105651;28;20842;-68
2023/01/20 13:01:19;;;;;;;31.90;20.80;;;;;;;;;;5108485;28;20412;-67
2023/01/20 13:04:11;;;;;;;9.53;8.50;;;;;;;;;;5108476;28;20424;-69
2023/01/20 13:06:41;;;;;;;7.67;6.87;;;;;;;;;;5111318;28;20432;-66
2023/01/20 13:09:13;;;;;;;9.83;7.30;;;;;;;;;;5112402;28;20459;-70
2023/01/20 13:11:41;;;;;;;8.03;6.63;;;;;;;;;;5112948;28;20566;-68
2023/01/20 13:14:19;;;;;;;6.97;6.40;;;;;;;;;;5112685;28;20427;-70
2023/01/20 13:16:53;;;;;;;32.07;16.00;;;;;;;;;;5112500;28;20522;-68
2023/01/20 13:19:30;;;;;;;25.50;13.67;;;;;;;;;;5112930;28;20558;-68
2023/01/20 13:22:02;;;;;;;11.57;9.67;;;;;;;;;;5112245;28;20430;-69
2023/01/20 13:24:28;;;;;;;27.27;11.00;;;;;;;;;;5110629;28;20444;-71
2023/01/20 13:26:55;;;;;;;29.50;15.03;;;;;;;;;;5112499;28;20459;-66
2023/01/20 13:29:22;;;;;;;10.43;8.33;;;;;;;;;;5107628;28;20942;-67
2023/01/20 13:31:50;;;;;;;9.80;7.43;;;;;;;;;;5110897;28;20494;-67
2023/01/20 13:34:23;;;;;;;31.07;8.60;;;;;;;;;;5111834;28;20411;-68
2023/01/20 13:37:08;;;;;;;20.23;9.73;;;;;;;;;;5111170;28;20516;-66
2023/01/20 13:39:39;;;;;;;16.43;8.40;;;;;;;;;;5110912;28;20571;-67
2023/01/20 13:42:23;;;;;;;7.03;6.33;;;;;;;;;;5112570;28;20415;-70
2023/01/20 13:45:09;;;;;;;12.07;7.47;;;;;;;;;;5112283;28;20497;-70
2023/01/20 13:47:56;;;;;;;12.03;6.30;;;;;;;;;;5110301;28;20463;-69
2023/01/20 13:50:29;;;;;;;9.27;5.50;;;;;;;;;;5111783;28;20466;-68
2023/01/20 13:53:03;;;;;;;26.70;14.17;;;;;;;;;;5111482;28;20420;-68
2023/01/20 13:55:44;;;;;;;36.30;8.43;;;;;;;;;;5108806;28;20427;-70
2023/01/20 13:58:13;;;;;;;28.13;15.80;;;;;;;;;;5110422;28;20644;-69
2023/01/20 14:00:39;;;;;;;15.20;7.33;;;;;;;;;;5111190;28;20444;-71
2023/01/20 14:03:26;;;;;;;24.23;10.77;;;;;;;;;;5109744;28;20424;-69
2023/01/20 14:05:54;;;;;;;39.73;15.10;;;;;;;;;;5111057;28;20466;-70
2023/01/20 14:08:21;;;;;;;6.80;6.03;;;;;;;;;;5109499;28;20431;-68
2023/01/20 14:10:47;;;;;;;9.20;7.27;;;;;;;;;;5110383;28;20566;-68
2023/01/20 14:13:23;;;;;;;34.23;13.43;;;;;;;;;;5111818;28;20431;-67
2023/01/20 14:15:53;;;;;;;28.67;10.13;;;;;;;;;;5111658;28;20803;-66
2023/01/20 14:18:21;;;;;;;8.63;7.77;;;;;;;;;;5109329;28;20431;-67
2023/01/20 14:21:05;;;;;;;7.70;6.90;;;;;;;;;;5111807;28;20946;-68
2023/01/20 14:23:35;;;;;;;10.77;9.13;;;;;;;;;;5111796;28;20404;-67
2023/01/20 14:26:03;;;;;;;13.37;6.70;;;;;;;;;;5111313;28;20916;-68
2023/01/20 14:28:29;;;;;;;18.27;7.17;;;;;;;;;;5111952;28;20419;-68
2023/01/20 14:31:25;;;;;;;16.63;7.77;;;;;;;;;;5111333;28;21295;-68
2023/01/20 14:33:56;;;;;;;9.20;8.17;;;;;;;;;;5092328;28;20470;-68
2023/01/20 14:36:24;;;;;;;11.03;5.90;;;;;;;;;;5112471;28;20414;-70
2023/01/20 14:38:52;;;;;;;24.83;10.40;;;;;;;;;;5110229;28;20450;-68
2023/01/20 14:41:23;;;;;;;8.47;7.60;;;;;;;;;;5111214;28;20416;-67
2023/01/20 14:43:49;;;;;;;8.77;5.63;;;;;;;;;;5110016;28;20788;-67
2023/01/20 14:46:16;;;;;;;6.33;4.83;;;;;;;;;;5112068;28;20418;-68
2023/01/20 14:48:42;;;;;;;5.77;5.27;;;;;;;;;;5126252;27;20507;-67
2023/01/20 14:51:08;;;;;;;5.73;4.87;;;;;;;;;;5132317;27;20478;-67
2023/01/20 14:53:35;;;;;;;4.70;4.00;;;;;;;;;;5131839;27;20423;-67
2023/01/20 14:56:06;;;;;;;6.30;5.50;;;;;;;;;;5132142;27;20521;-66
2023/01/20 14:58:32;;;;;;;8.43;4.00;;;;;;;;;;5130779;27;20415;-67
2023/01/20 15:01:00;;;;;;;8.87;7.40;;;;;;;;;;5132492;27;20454;-68
2023/01/20 15:03:27;;;;;;;10.40;6.80;;;;;;;;;;5114053;27;20430;-67
2023/01/20 15:06:01;;;;;;;15.10;10.13;;;;;;;;;;5132147;27;20411;-67
2023/01/20 15:08:44;;;;;;;9.30;6.60;;;;;;;;;;5130377;27;20515;-67
2023/01/20 15:11:20;;;;;;;5.40;4.83;;;;;;;;;;5113351;27;20523;-67
2023/01/20 15:13:52;;;;;;;19.57;7.23;;;;;;;;;;5131760;27;20407;-66
2023/01/20 15:16:18;;;;;;;11.13;6.37;;;;;;;;;;5132341;27;20475;-66
2023/01/20 15:19:02;;;;;;;14.43;7.20;;;;;;;;;;5131302;27;20427;-67
2023/01/20 15:21:28;;;;;;;5.70;4.27;;;;;;;;;;5124469;27;20418;-67
2023/01/20 15:23:54;;;;;;;6.53;5.60;;;;;;;;;;5111080;27;20510;-67
2023/01/20 15:26:23;;;;;;;8.43;5.90;;;;;;;;;;5130373;27;20435;-68
2023/01/20 15:28:49;;;;;;;13.73;6.40;;;;;;;;;;5123778;27;20558;-67
2023/01/20 15:31:16;;;;;;;5.80;4.50;;;;;;;;;;5106417;27;20913;-67
2023/01/20 15:33:42;;;;;;;6.40;5.90;;;;;;;;;;5130493;27;20926;-69
2023/01/20 15:36:20;;;;;;;6.80;6.17;;;;;;;;;;5112423;27;20513;-68
2023/01/20 15:38:46;;;;;;;7.50;6.80;;;;;;;;;;5129586;27;20423;-67
2023/01/20 15:41:12;;;;;;;8.77;6.53;;;;;;;;;;5131301;27;20445;-66
2023/01/20 15:43:39;;;;;;;5.83;5.43;;;;;;;;;;5130926;27;20427;-67
2023/01/20 15:46:12;;;;;;;9.60;6.20;;;;;;;;;;5131430;27;20458;-66
2023/01/20 15:48:38;;;;;;;15.17;5.80;;;;;;;;;;5130601;27;20466;-66
2023/01/20 15:51:06;;;;;;;4.67;4.40;;;;;;;;;;5131239;27;20486;-68
2023/01/20 15:53:32;;;;;;;13.93;5.50;;;;;;;;;;5129234;27;20445;-67
2023/01/20 15:55:59;;;;;;;5.10;3.80;;;;;;;;;;5130121;27;20435;-67
2023/01/20 15:58:26;;;;;;;5.20;4.70;;;;;;;;;;5131003;27;20407;-68
2023/01/20 16:00:53;;;;;;;6.30;4.50;;;;;;;;;;5130248;27;20473;-66
2023/01/20 16:03:20;;;;;;;7.30;4.40;;;;;;;;;;5130176;27;20972;-67
2023/01/20 16:05:47;;;;;;;5.60;3.70;;;;;;;;;;5130830;27;20438;-67
2023/01/20 16:08:20;;;;;;;4.13;3.80;;;;;;;;;;5111752;27;20422;-70
2023/01/20 16:10:46;;;;;;;5.97;3.90;;;;;;;;;;5129379;27;20529;-67
2023/01/20 16:13:13;;;;;;;3.80;3.60;;;;;;;;;;5130823;27;20426;-66
2023/01/20 16:15:41;;;;;;;4.10;3.70;;;;;;;;;;5130140;27;20423;-67
2023/01/20 16:18:11;;;;;;;9.83;6.30;;;;;;;;;;5130627;27;21080;-67
2023/01/20 16:20:37;;;;;;;5.77;4.90;;;;;;;;;;5130482;27;20918;-68
2023/01/20 16:23:03;;;;;;;14.47;4.80;;;;;;;;;;5129992;27;20479;-67
2023/01/20 16:25:29;;;;;;;7.23;5.33;;;;;;;;;;5127766;27;20465;-66
2023/01/20 16:27:56;;;;;;;7.50;4.70;;;;;;;;;;5129379;27;20834;-66
2023/01/20 16:30:22;;;;;;;9.37;8.30;;;;;;;;;;5130137;28;20963;-69
2023/01/20 16:32:48;;;;;;;11.40;7.57;;;;;;;;;;5130805;28;20906;-67
2023/01/20 16:35:15;;;;;;;8.70;5.37;;;;;;;;;;5128804;28;20441;-65
2023/01/20 16:37:41;;;;;;;49.63;5.10;;;;;;;;;;5130969;27;20422;-68
2023/01/20 16:40:11;;;;;;;5.23;4.43;;;;;;;;;;5133091;27;20487;-68
2023/01/20 16:42:37;;;;;;;5.50;5.00;;;;;;;;;;5134031;27;20458;-66
2023/01/20 16:45:04;;;;;;;3.80;3.60;;;;;;;;;;5133103;27;20957;-67
2023/01/20 16:47:29;;;;;;;15.27;7.10;;;;;;;;;;5129768;27;20470;-67
2023/01/20 16:49:55;;;;;;;23.87;10.50;;;;;;;;;;5133529;27;20423;-66
2023/01/20 16:52:21;;;;;;;25.53;11.70;;;;;;;;;;5132989;27;20469;-66
2023/01/20 16:54:47;;;;;;;20.37;12.80;;;;;;;;;;5113396;27;20426;-66
2023/01/20 16:57:13;;;;;;;10.90;6.70;;;;;;;;;;5133430;27;20430;-67
2023/01/20 16:59:39;;;;;;;12.63;5.70;;;;;;;;;;5132064;27;20454;-67
2023/01/20 17:02:05;;;;;;;13.40;7.37;;;;;;;;;;5132369;27;20430;-66
2023/01/20 17:04:31;;;;;;;12.60;7.90;;;;;;;;;;5132081;27;20954;-69
2023/01/20 17:06:57;;;;;;;22.27;7.47;;;;;;;;;;5132824;27;21008;-66
2023/01/20 17:09:23;;;;;;;11.00;7.60;;;;;;;;;;5132369;27;20410;-66
2023/01/20 17:11:49;;;;;;;10.10;8.10;;;;;;;;;;5132875;27;20880;-66